Time;durP1;ratioP1;P1;durP2;ratioP2;P2;SDS_P1;SDS_P2;PMS_P1;PMS_P2;Temp;Humidity;BMP_temperature;BMP_pressure;BME280_temperature;BME280_humidity;BME280_pressure;Samples;Min_cycle;Max_cycle;Signal;HPM_P1;HPM_P2
2023/03/26 00:01:45;;;;;;;1.25;0.70;;;;;;;10.43;58.89;94345.00;5116165;27;20413;-77
2023/03/26 00:04:10;;;;;;;2.22;0.80;;;;;;;10.54;58.86;94350.06;5133339;27;20418;-76
2023/03/26 00:06:37;;;;;;;0.98;0.60;;;;;;;10.18;58.56;94317.78;5116158;27;20057;-76
2023/03/26 00:09:05;;;;;;;0.85;0.50;;;;;;;10.36;58.51;94341.31;5116172;27;20454;-76
2023/03/26 00:11:30;;;;;;;1.35;0.68;;;;;;;10.40;58.58;94342.69;5133000;27;20027;-76
2023/03/26 00:13:56;;;;;;;1.25;0.60;;;;;;;10.27;59.09;94337.75;5133016;27;20043;-76
2023/03/26 00:16:22;;;;;;;1.77;0.60;;;;;;;10.28;58.96;94347.22;5133054;27;20029;-76
2023/03/26 00:18:50;;;;;;;0.80;0.50;;;;;;;10.32;58.72;94351.16;5115997;27;20023;-76
2023/03/26 00:21:17;;;;;;;1.40;0.60;;;;;;;10.18;59.36;94329.00;5116174;27;20046;-77
2023/03/26 00:23:42;;;;;;;1.10;0.68;;;;;;;10.29;59.03;94325.47;5115892;27;20066;-77
2023/03/26 00:26:09;;;;;;;1.38;0.68;;;;;;;10.17;59.24;94314.38;5132903;27;20023;-76
2023/03/26 00:28:36;;;;;;;1.92;1.00;;;;;;;10.27;59.04;94317.00;5099010;27;20023;-76
2023/03/26 00:31:04;;;;;;;1.70;0.70;;;;;;;10.17;59.36;94306.59;5132629;27;20035;-76
2023/03/26 00:33:30;;;;;;;1.10;0.60;;;;;;;10.06;59.67;94297.16;5115707;27;20038;-76
2023/03/26 00:35:57;;;;;;;1.23;0.50;;;;;;;10.12;59.43;94293.19;5132668;27;20051;-76
2023/03/26 00:38:24;;;;;;;1.48;0.60;;;;;;;9.99;59.77;94269.28;5115480;27;20514;-77
2023/03/26 00:40:50;;;;;;;1.05;0.63;;;;;;;9.96;59.47;94267.78;5098686;27;20035;-76
2023/03/26 00:43:19;;;;;;;0.75;0.47;;;;;;;9.98;59.45;94275.44;5132514;27;20035;-76
2023/03/26 00:45:52;;;;;;;1.08;0.60;;;;;;;9.92;59.99;94266.44;5115674;27;20038;-76
2023/03/26 00:48:18;;;;;;;0.90;0.60;;;;;;;9.84;60.08;94264.50;5132526;27;20027;-76
2023/03/26 00:50:45;;;;;;;1.20;0.70;;;;;;;9.82;60.09;94250.84;5103757;28;20115;-77
2023/03/26 00:53:11;;;;;;;1.55;0.80;;;;;;;10.00;59.25;94273.53;5109478;28;20037;-77
2023/03/26 00:55:37;;;;;;;0.95;0.60;;;;;;;9.86;60.05;94269.56;5090410;28;20031;-77
2023/03/26 00:58:02;;;;;;;1.35;0.60;;;;;;;9.88;60.18;94272.84;5107597;28;20074;-76
2023/03/26 01:00:33;;;;;;;1.02;0.73;;;;;;;9.91;59.75;94274.34;5108118;28;20524;-76
2023/03/26 01:02:59;;;;;;;;;;;;;;;9.88;59.94;94274.63;5091987;28;20031;-77
2023/03/26 01:05:42;;;;;;;1.60;0.80;;;;;;;9.83;60.10;94269.81;5107579;28;20362;-77
2023/03/26 01:08:43;;;;;;;1.65;0.60;;;;;;;9.87;59.55;94268.63;5106667;28;20058;-76
2023/03/26 01:11:29;;;;;;;1.30;0.80;;;;;;;9.82;59.84;94269.00;5107509;28;20565;-76
2023/03/26 01:14:10;;;;;;;1.75;0.73;;;;;;;9.85;59.36;94262.72;5090080;28;20586;-76
2023/03/26 01:16:59;;;;;;;1.67;1.00;;;;;;;9.80;59.71;94268.31;5088691;28;20059;-76
2023/03/26 01:19:24;;;;;;;1.08;0.70;;;;;;;9.88;59.04;94274.63;5085841;28;20036;-77
2023/03/26 01:21:50;;;;;;;1.15;0.70;;;;;;;9.91;58.99;94279.53;5109253;28;20493;-76
2023/03/26 01:24:15;;;;;;;1.02;0.68;;;;;;;9.89;58.29;94284.03;5091400;28;20039;-76
2023/03/26 01:26:53;;;;;;;1.85;0.80;;;;;;;9.91;57.93;94282.13;5090095;28;20055;-76
2023/03/26 01:29:40;;;;;;;1.58;0.90;;;;;;;9.88;57.86;94290.19;5087934;28;20031;-76
2023/03/26 01:32:12;;;;;;;0.95;0.70;;;;;;;9.76;57.96;94258.38;5099582;28;20048;-76
2023/03/26 01:34:51;;;;;;;1.70;0.90;;;;;;;9.87;58.05;94291.16;5104786;28;20471;-76
2023/03/26 01:37:57;;;;;;;1.52;0.70;;;;;;;9.92;57.85;94296.72;5106330;28;20062;-76
2023/03/26 01:40:27;;;;;;;1.85;0.85;;;;;;;9.89;58.35;94303.03;5063424;28;20524;-77
2023/03/26 01:43:14;;;;;;;2.38;0.93;;;;;;;9.89;58.64;94297.00;5090682;28;20032;-76
2023/03/26 01:45:41;;;;;;;1.88;0.98;;;;;;;9.87;58.50;94309.31;5107179;28;20028;-77
2023/03/26 01:48:06;;;;;;;1.23;0.73;;;;;;;9.89;58.81;94297.84;5083452;28;20080;-76
2023/03/26 01:50:32;;;;;;;1.05;0.70;;;;;;;9.63;58.84;94267.22;5090292;28;20047;-76
2023/03/26 01:52:57;;;;;;;2.20;1.58;;;;;;;9.69;59.02;94281.41;5091421;28;20093;-77
2023/03/26 01:55:25;;;;;;;1.70;1.00;;;;;;;9.77;59.19;94302.31;5071837;28;20036;-77
2023/03/26 01:58:15;;;;;;;2.30;1.13;;;;;;;9.54;59.66;94282.78;5074307;28;20110;-77
2023/03/26 02:00:44;;;;;;;2.03;1.17;;;;;;;9.78;59.48;94322.13;5073164;28;20149;-77
2023/03/26 02:03:19;;;;;;;1.75;1.10;;;;;;;9.67;59.79;94293.72;5073824;28;20027;-76
2023/03/26 02:06:08;;;;;;;1.85;1.10;;;;;;;9.77;59.63;94317.06;5105957;28;20066;-76
2023/03/26 02:08:38;;;;;;;2.13;1.42;;;;;;;9.81;59.99;94329.66;5077868;28;20044;-76
2023/03/26 02:11:12;;;;;;;2.15;1.10;;;;;;;9.65;60.16;94303.41;5089609;28;20032;-76
2023/03/26 02:13:38;;;;;;;2.00;1.23;;;;;;;9.39;60.20;94266.78;5089532;28;20042;-76
2023/03/26 02:16:06;;;;;;;2.60;1.40;;;;;;;9.79;60.35;94328.94;5072290;28;20524;-76
2023/03/26 02:18:40;;;;;;;2.60;1.90;;;;;;;9.79;60.34;94334.13;5071093;28;20027;-76
2023/03/26 02:21:11;;;;;;;2.42;1.70;;;;;;;9.60;60.72;94324.53;5106650;28;20494;-76
2023/03/26 02:23:41;;;;;;;2.35;1.23;;;;;;;9.81;60.20;94344.41;5106465;28;20035;-76
2023/03/26 02:26:08;;;;;;;2.03;1.30;;;;;;;9.59;60.32;94309.13;5088791;28;20035;-76
2023/03/26 02:28:33;;;;;;;1.80;1.10;;;;;;;9.63;60.60;94308.72;5087479;28;20020;-77
2023/03/26 02:31:00;;;;;;;1.88;1.10;;;;;;;9.74;60.26;94320.75;5089399;28;20414;-76
2023/03/26 02:33:27;;;;;;;1.50;1.10;;;;;;;9.75;60.35;94317.22;5072881;28;20494;-76
2023/03/26 02:35:52;;;;;;;1.92;1.40;;;;;;;9.44;60.31;94293.09;5088889;28;20462;-76
2023/03/26 02:38:18;;;;;;;2.10;1.20;;;;;;;9.22;60.68;94244.06;5087674;28;20032;-76
2023/03/26 02:40:43;;;;;;;2.75;1.50;;;;;;;9.46;61.18;94316.31;5090667;28;20477;-76
2023/03/26 02:43:09;;;;;;;2.38;1.55;;;;;;;9.36;61.43;94311.09;5090232;28;20024;-76
2023/03/26 02:45:34;;;;;;;2.47;1.42;;;;;;;9.39;61.17;94319.44;5089191;28;20085;-76
2023/03/26 02:48:00;;;;;;;2.20;1.45;;;;;;;9.30;61.25;94311.63;5087562;28;20028;-76
2023/03/26 02:50:25;;;;;;;2.50;1.75;;;;;;;9.44;61.62;94333.78;5070866;28;20039;-76
2023/03/26 02:52:52;;;;;;;2.78;1.77;;;;;;;9.40;61.83;94334.03;5072067;28;20103;-76
2023/03/26 02:55:17;;;;;;;2.53;1.50;;;;;;;9.36;61.33;94337.00;5088990;28;20028;-76
2023/03/26 02:57:43;;;;;;;2.67;1.60;;;;;;;8.82;61.63;94255.25;5088823;28;20065;-76
2023/03/26 03:00:12;;;;;;;2.17;1.48;;;;;;;9.34;61.44;94339.75;5070621;28;20039;-76
2023/03/26 03:02:37;;;;;;;2.05;1.40;;;;;;;9.31;61.64;94345.19;5089274;28;20549;-76
2023/03/26 03:05:04;;;;;;;1.83;1.40;;;;;;;9.36;61.35;94349.97;5089243;28;20052;-76
2023/03/26 03:07:29;;;;;;;2.30;1.30;;;;;;;9.37;61.37;94355.03;5072107;28;20126;-76
2023/03/26 03:09:55;;;;;;;2.85;1.77;;;;;;;9.15;61.31;94311.16;5087702;28;20117;-76
2023/03/26 03:12:20;;;;;;;3.05;2.05;;;;;;;9.33;61.99;94343.31;5089764;28;20027;-76
2023/03/26 03:14:46;;;;;;;2.50;1.80;;;;;;;9.19;61.69;94328.09;5107312;27;20043;-76
2023/03/26 03:17:11;;;;;;;2.60;1.88;;;;;;;8.87;61.77;94284.19;5092528;28;20042;-76
2023/03/26 03:19:37;;;;;;;2.17;1.65;;;;;;;9.27;60.97;94328.25;5074125;28;20036;-76
2023/03/26 03:22:02;;;;;;;2.70;1.60;;;;;;;9.07;61.30;94332.53;5092638;28;20513;-76
2023/03/26 03:24:28;;;;;;;3.20;1.70;;;;;;;9.24;61.29;94359.63;5092492;28;20036;-76
2023/03/26 03:26:55;;;;;;;2.55;1.83;;;;;;;9.14;61.49;94363.97;5109857;28;20046;-76
2023/03/26 03:29:21;;;;;;;2.30;1.70;;;;;;;8.99;61.52;94347.09;5074734;28;20034;-76
2023/03/26 03:31:46;;;;;;;2.10;1.70;;;;;;;9.04;61.83;94381.22;5110500;28;20039;-76
2023/03/26 03:34:12;;;;;;;2.10;1.45;;;;;;;8.89;62.27;94360.81;5110949;28;20526;-76
2023/03/26 03:36:37;;;;;;;2.78;1.92;;;;;;;8.82;62.27;94362.28;5092203;28;20031;-76
2023/03/26 03:39:06;;;;;;;3.22;1.83;;;;;;;8.86;62.63;94376.63;5091556;28;20039;-77
2023/03/26 03:41:31;;;;;;;2.42;1.77;;;;;;;8.99;62.39;94388.53;5092518;28;20046;-76
2023/03/26 03:43:58;;;;;;;2.65;1.90;;;;;;;8.90;62.44;94390.94;5092478;28;20024;-76
2023/03/26 03:46:24;;;;;;;2.42;1.83;;;;;;;8.92;62.70;94385.66;5092184;28;20084;-76
2023/03/26 03:48:49;;;;;;;2.78;2.15;;;;;;;8.96;62.50;94379.25;5073926;28;20032;-76
2023/03/26 03:51:17;;;;;;;2.72;1.88;;;;;;;8.94;62.54;94378.56;5112914;28;20028;-76
2023/03/26 03:53:44;;;;;;;3.25;2.38;;;;;;;8.95;62.49;94383.63;5095566;28;20498;-76
2023/03/26 03:56:12;;;;;;;3.05;2.42;;;;;;;8.55;62.88;94339.47;5112051;28;20533;-76
2023/03/26 03:58:38;;;;;;;3.08;2.33;;;;;;;8.90;62.97;94384.94;5095857;28;20164;-76
2023/03/26 04:01:03;;;;;;;3.00;2.33;;;;;;;8.92;62.98;94391.66;5112695;28;20028;-76
2023/03/26 04:03:29;;;;;;;3.80;2.85;;;;;;;8.83;62.96;94391.56;5095749;28;20039;-76
2023/03/26 04:05:54;;;;;;;3.45;2.45;;;;;;;8.79;63.17;94397.97;5112679;28;20531;-76
2023/03/26 04:08:21;;;;;;;3.58;2.40;;;;;;;8.72;62.93;94389.91;5095597;28;20030;-76
2023/03/26 04:10:46;;;;;;;7.47;4.32;;;;;;;8.81;63.37;94394.31;5078572;28;20120;-76
2023/03/26 04:13:12;;;;;;;3.55;2.53;;;;;;;8.16;62.87;94296.94;5078658;28;20028;-77
2023/03/26 04:15:38;;;;;;;4.40;3.03;;;;;;;8.64;63.14;94376.75;5111635;28;20038;-76
2023/03/26 04:18:03;;;;;;;4.40;3.25;;;;;;;8.69;62.73;94369.41;5078272;28;20059;-76
2023/03/26 04:20:30;;;;;;;7.97;5.65;;;;;;;8.62;63.31;94376.88;5112282;28;20055;-76
2023/03/26 04:22:56;;;;;;;6.22;4.97;;;;;;;8.84;63.39;94416.56;5112161;28;20124;-76
2023/03/26 04:25:29;;;;;;;5.05;4.22;;;;;;;8.76;62.98;94430.13;5111193;28;20024;-76
2023/03/26 04:27:57;;;;;;;6.35;3.33;;;;;;;8.63;63.54;94411.34;5080377;28;20035;-76
2023/03/26 04:30:22;;;;;;;3.45;2.88;;;;;;;8.85;62.83;94437.13;5078910;28;20036;-76
2023/03/26 04:32:48;;;;;;;4.78;3.15;;;;;;;8.75;63.31;94423.31;5078241;28;20477;-76
2023/03/26 04:35:15;;;;;;;4.00;2.95;;;;;;;8.88;63.11;94436.88;5095034;28;20027;-76
2023/03/26 04:37:40;;;;;;;3.30;2.55;;;;;;;8.88;63.02;94434.28;5095229;28;20058;-76
2023/03/26 04:40:18;;;;;;;5.63;4.20;;;;;;;8.91;62.91;94441.81;5078126;28;20489;-76
2023/03/26 04:42:44;;;;;;;4.68;3.33;;;;;;;8.97;63.02;94456.06;5095319;28;20055;-76
2023/03/26 04:45:11;;;;;;;4.25;3.05;;;;;;;8.70;63.15;94413.31;5078167;28;20040;-76
2023/03/26 04:47:38;;;;;;;3.53;2.60;;;;;;;8.93;62.69;94465.81;5111727;28;20024;-76
2023/03/26 04:50:05;;;;;;;3.65;2.85;;;;;;;8.72;62.82;94455.44;5111759;28;20405;-76
2023/03/26 04:52:31;;;;;;;4.10;3.53;;;;;;;8.93;63.57;94472.78;5128877;27;20039;-77
2023/03/26 04:54:56;;;;;;;4.00;3.20;;;;;;;9.00;62.76;94475.69;5094580;28;20066;-76
2023/03/26 04:57:36;;;;;;;4.05;3.20;;;;;;;8.90;62.95;94470.44;5111793;28;20028;-76
2023/03/26 05:00:10;;;;;;;4.13;3.15;;;;;;;8.99;62.86;94471.44;5110091;28;20050;-76
2023/03/26 05:02:38;;;;;;;4.68;3.40;;;;;;;9.02;62.57;94481.56;5095650;28;20024;-76
2023/03/26 05:05:04;;;;;;;4.97;4.45;;;;;;;8.88;62.51;94478.31;5094724;28;20425;-76
2023/03/26 05:07:30;;;;;;;4.90;3.67;;;;;;;9.00;62.52;94467.91;5094378;28;20042;-76
2023/03/26 05:09:56;;;;;;;4.32;3.35;;;;;;;9.03;62.02;94473.69;5111303;28;20034;-76
2023/03/26 05:12:21;;;;;;;5.05;3.35;;;;;;;9.13;61.43;94471.94;5128382;27;20482;-76
2023/03/26 05:14:47;;;;;;;4.88;3.28;;;;;;;9.02;61.58;94476.38;5111202;28;20390;-76
2023/03/26 05:17:13;;;;;;;4.70;3.67;;;;;;;8.90;61.20;94453.13;5128283;27;20066;-76
2023/03/26 05:19:40;;;;;;;5.45;4.00;;;;;;;9.15;60.52;94485.59;5128238;27;20035;-76
2023/03/26 05:22:05;;;;;;;10.30;7.50;;;;;;;9.10;59.94;94486.94;5128050;27;20557;-76
2023/03/26 05:24:31;;;;;;;7.57;5.78;;;;;;;9.14;60.29;94483.16;5111174;28;20031;-76
2023/03/26 05:26:56;;;;;;;5.53;4.43;;;;;;;9.14;59.37;94475.38;5112373;28;20034;-76
2023/03/26 05:29:23;;;;;;;5.28;3.95;;;;;;;9.15;59.12;94484.78;5111177;28;20024;-76
2023/03/26 05:31:49;;;;;;;17.13;12.90;;;;;;;9.26;59.11;94476.13;5110798;28;20114;-76
2023/03/26 05:34:14;;;;;;;6.47;5.15;;;;;;;9.50;58.15;94481.88;5127622;27;20032;-76
2023/03/26 05:36:41;;;;;;;6.45;4.80;;;;;;;9.69;57.85;94496.69;5110686;28;20180;-76
2023/03/26 05:39:07;;;;;;;5.75;4.65;;;;;;;9.93;57.32;94490.38;5111009;28;20023;-76
2023/03/26 05:41:33;;;;;;;5.97;4.93;;;;;;;10.05;56.76;94494.53;5127790;27;20031;-77
2023/03/26 05:43:58;;;;;;;7.85;6.75;;;;;;;10.01;56.55;94488.78;5145127;27;20107;-76
2023/03/26 05:46:24;;;;;;;6.07;5.10;;;;;;;10.25;56.68;94493.66;5127741;27;20035;-76
2023/03/26 05:48:50;;;;;;;8.52;6.25;;;;;;;10.48;56.14;94496.88;5079355;28;20039;-77
2023/03/26 05:51:16;;;;;;;7.25;5.43;;;;;;;10.99;54.98;94492.38;5124141;27;20036;-76
2023/03/26 05:53:42;;;;;;;5.53;4.82;;;;;;;12.00;52.46;94497.94;5107183;28;20024;-76
2023/03/26 05:56:08;;;;;;;7.10;4.78;;;;;;;11.90;51.68;94490.19;5090083;28;20024;-77
2023/03/26 05:58:33;;;;;;;5.88;4.65;;;;;;;12.50;49.91;94497.56;5107077;28;20490;-76
2023/03/26 06:01:01;;;;;;;6.18;5.30;;;;;;;12.15;50.98;94493.09;5106985;28;20028;-76
2023/03/26 06:03:27;;;;;;;5.95;4.90;;;;;;;12.37;49.88;94461.47;5123619;27;20027;-76
2023/03/26 06:05:52;;;;;;;5.53;4.57;;;;;;;12.83;48.69;94482.25;5073014;28;20079;-76
2023/03/26 06:08:19;;;;;;;6.45;4.93;;;;;;;12.94;47.86;94479.44;5124110;27;20036;-76
2023/03/26 06:10:44;;;;;;;6.10;4.93;;;;;;;12.53;49.23;94482.44;5123792;27;20453;-76
2023/03/26 06:13:10;;;;;;;7.65;5.70;;;;;;;12.48;49.30;94473.44;5106923;28;20028;-76
2023/03/26 06:15:36;;;;;;;6.82;5.15;;;;;;;12.42;49.44;94500.88;5123669;27;20078;-77
2023/03/26 06:18:01;;;;;;;6.22;4.30;;;;;;;12.17;49.73;94489.38;5090152;28;20031;-76
2023/03/26 06:20:27;;;;;;;5.78;5.10;;;;;;;12.07;50.05;94486.81;5106874;28;20031;-76
2023/03/26 06:22:52;;;;;;;5.30;4.30;;;;;;;12.13;49.59;94482.81;5123866;27;20108;-77
2023/03/26 06:25:18;;;;;;;6.35;5.05;;;;;;;12.17;50.66;94484.16;5123923;27;20509;-77
2023/03/26 06:27:44;;;;;;;6.28;4.68;;;;;;;12.22;50.21;94474.13;5072838;28;20028;-77
2023/03/26 06:30:10;;;;;;;5.97;5.00;;;;;;;12.59;49.44;94482.84;5089595;28;20491;-76
2023/03/26 06:32:36;;;;;;;6.30;5.47;;;;;;;12.70;48.71;94472.19;5123500;28;20056;-76
2023/03/26 06:35:01;;;;;;;7.40;4.78;;;;;;;13.03;47.52;94488.13;5089644;28;20064;-76
2023/03/26 06:37:26;;;;;;;6.18;4.75;;;;;;;13.27;46.73;94491.00;5089642;28;20020;-77
2023/03/26 06:39:52;;;;;;;6.35;4.88;;;;;;;13.41;45.52;94476.59;5089495;28;20040;-77
2023/03/26 06:42:18;;;;;;;4.90;4.38;;;;;;;13.60;44.98;94481.59;5089589;28;20020;-76
2023/03/26 06:44:43;;;;;;;5.55;4.95;;;;;;;13.61;45.04;94466.75;5089494;28;20072;-77
2023/03/26 06:47:09;;;;;;;5.68;4.68;;;;;;;14.06;44.39;94481.34;5106550;28;20032;-77
2023/03/26 06:49:35;;;;;;;7.82;5.32;;;;;;;14.31;43.16;94484.88;5108937;28;20035;-77
2023/03/26 06:52:01;;;;;;;6.32;4.88;;;;;;;14.43;43.08;94485.41;5093750;28;20031;-77
2023/03/26 06:54:27;;;;;;;6.68;4.85;;;;;;;14.55;42.22;94486.00;5094702;28;20489;-77
2023/03/26 06:56:53;;;;;;;5.53;4.60;;;;;;;14.72;41.39;94485.88;5093667;28;20044;-77
2023/03/26 06:59:18;;;;;;;6.13;5.05;;;;;;;14.87;41.83;94491.28;5085005;28;20035;-76
2023/03/26 07:01:44;;;;;;;5.35;4.80;;;;;;;15.18;41.29;94490.66;5095137;28;20085;-76
2023/03/26 07:04:09;;;;;;;6.72;6.00;;;;;;;15.16;40.89;94498.69;5108596;28;20043;-77
2023/03/26 07:06:34;;;;;;;5.72;4.88;;;;;;;15.28;40.98;94496.56;5084632;28;20066;-77
2023/03/26 07:09:00;;;;;;;5.90;4.60;;;;;;;15.30;40.32;94497.22;5094245;28;20035;-77
2023/03/26 07:11:25;;;;;;;5.80;5.20;;;;;;;15.35;40.27;94504.56;5112235;28;20024;-77
2023/03/26 07:13:51;;;;;;;5.75;5.13;;;;;;;15.65;39.55;94506.50;5112501;28;20023;-77
2023/03/26 07:16:17;;;;;;;5.60;4.22;;;;;;;15.77;38.23;94506.22;5092353;28;20048;-77
2023/03/26 07:18:42;;;;;;;5.25;4.40;;;;;;;15.70;38.78;94500.00;5104389;28;20027;-77
2023/03/26 07:21:08;;;;;;;4.55;4.05;;;;;;;15.88;37.81;94499.78;5110037;28;20020;-77
2023/03/26 07:23:34;;;;;;;4.35;3.85;;;;;;;16.12;37.79;94502.34;5075240;28;20035;-77
2023/03/26 07:26:01;;;;;;;4.53;4.07;;;;;;;15.87;37.81;94472.78;5110424;27;20041;-77
2023/03/26 07:28:38;;;;;;;5.57;4.85;;;;;;;15.95;38.26;94483.25;5106777;27;20035;-77
2023/03/26 07:31:33;;;;;;;5.72;4.65;;;;;;;16.14;38.30;94500.41;5090726;27;20035;-78
2023/03/26 07:34:04;;;;;;;6.00;4.43;;;;;;;15.95;38.44;94493.72;5103872;28;20169;-78
2023/03/26 07:36:36;;;;;;;4.75;4.20;;;;;;;15.90;37.76;94472.44;5107028;28;20057;-77
2023/03/26 07:39:06;;;;;;;5.13;4.47;;;;;;;16.00;38.60;94483.56;5089817;28;20035;-77
2023/03/26 07:41:44;;;;;;;5.13;4.10;;;;;;;16.28;37.29;94477.91;5109381;28;20205;-80
2023/03/26 07:44:21;;;;;;;5.95;4.45;;;;;;;16.26;37.29;94482.50;5092199;28;20085;-79
2023/03/26 07:46:47;;;;;;;5.88;4.50;;;;;;;16.38;37.19;94475.91;5109754;27;20047;-79
2023/03/26 07:49:13;;;;;;;5.22;4.40;;;;;;;16.30;37.09;94482.00;5074540;28;20063;-77
2023/03/26 07:51:39;;;;;;;6.30;4.28;;;;;;;16.04;37.58;94447.38;5090524;28;20059;-77
2023/03/26 07:54:05;;;;;;;5.20;4.18;;;;;;;16.34;36.66;94481.66;5109540;28;20098;-78
2023/03/26 07:56:37;;;;;;;6.50;4.80;;;;;;;16.39;37.02;94480.16;5072854;28;20074;-77
2023/03/26 07:59:09;;;;;;;5.57;4.60;;;;;;;16.47;36.46;94482.75;5091259;28;20026;-77
2023/03/26 08:01:44;;;;;;;5.57;4.10;;;;;;;16.28;36.06;94483.97;5107119;28;20036;-77
2023/03/26 08:04:22;;;;;;;4.28;3.60;;;;;;;16.33;35.62;94483.47;5091314;28;20535;-77
2023/03/26 08:06:53;;;;;;;6.05;3.85;;;;;;;16.17;35.52;94479.09;5067155;28;20041;-77
2023/03/26 08:09:22;;;;;;;4.78;3.78;;;;;;;16.24;35.62;94476.59;5066730;28;20448;-78
2023/03/26 08:11:52;;;;;;;5.07;3.60;;;;;;;16.19;35.37;94471.06;5070359;28;20032;-77
2023/03/26 08:14:35;;;;;;;4.80;3.73;;;;;;;15.95;34.49;94470.16;5071260;28;20036;-77
2023/03/26 08:17:22;;;;;;;5.82;3.55;;;;;;;16.18;34.84;94474.66;5065159;28;20032;-77
2023/03/26 08:20:33;;;;;;;5.75;4.57;;;;;;;15.99;34.97;94470.63;5063775;28;20495;-77
2023/03/26 08:23:15;;;;;;;5.80;4.90;;;;;;;15.76;36.29;94467.91;5057296;28;20098;-77
2023/03/26 08:25:58;;;;;;;8.43;4.95;;;;;;;15.65;36.86;94469.84;5066585;28;20111;-77
2023/03/26 08:28:38;;;;;;;5.18;3.90;;;;;;;15.65;36.76;94475.09;5051598;28;20032;-77
2023/03/26 08:31:04;;;;;;;4.63;3.70;;;;;;;15.84;36.27;94473.13;5067811;28;20029;-77
2023/03/26 08:33:39;;;;;;;4.88;3.50;;;;;;;15.95;35.34;94474.59;5067147;28;20060;-79
2023/03/26 08:36:06;;;;;;;7.97;3.55;;;;;;;16.11;35.52;94471.09;5052567;28;20032;-77
2023/03/26 08:38:49;;;;;;;7.10;3.92;;;;;;;16.17;35.20;94463.38;5048712;28;20116;-78
2023/03/26 08:41:56;;;;;;;4.82;4.00;;;;;;;16.52;35.04;94471.75;5039511;28;20090;-75
2023/03/26 08:44:49;;;;;;;4.53;3.00;;;;;;;16.53;33.42;94466.31;5066489;28;20094;-76
2023/03/26 08:47:42;;;;;;;3.17;2.45;;;;;;;16.50;32.35;94471.91;5066398;28;20033;-78
2023/03/26 08:50:26;;;;;;;3.75;2.45;;;;;;;16.57;32.44;94473.84;5050629;28;20263;-78
2023/03/26 08:53:13;;;;;;;3.08;2.15;;;;;;;16.63;31.23;94468.75;5069451;28;20044;-78
2023/03/26 08:55:47;;;;;;;3.25;2.40;;;;;;;16.49;31.11;94472.91;5069130;28;20044;-79
2023/03/26 08:58:37;;;;;;;3.55;2.40;;;;;;;16.62;31.32;94472.34;5070898;28;20033;-83
2023/03/26 09:01:03;;;;;;;4.70;2.60;;;;;;;16.60;31.07;94463.00;5078477;28;20506;-83
2023/03/26 09:03:34;;;;;;;4.22;2.30;;;;;;;16.64;31.92;94474.81;5070963;28;20039;-84
2023/03/26 09:06:31;;;;;;;3.47;2.72;;;;;;;16.66;32.08;94451.81;5097844;28;20576;-81
2023/03/26 09:09:12;;;;;;;5.25;3.47;;;;;;;16.37;31.82;94457.72;5109910;28;20378;-80
2023/03/26 09:11:40;;;;;;;;;;;;;;;16.46;30.35;94467.97;5110585;28;20035;-81
2023/03/26 09:14:42;;;;;;;5.32;1.90;;;;;;;16.20;29.31;94472.69;5111483;28;19920;-79
2023/03/26 09:17:53;;;;;;;3.42;1.58;;;;;;;16.07;29.16;94465.38;5108501;27;20474;-79
2023/03/26 09:20:27;;;;;;;2.95;1.92;;;;;;;16.25;30.24;94467.78;5087413;28;20441;-80
2023/03/26 09:23:10;;;;;;;3.38;1.92;;;;;;;16.44;30.58;94474.41;5107192;28;20074;-80
2023/03/26 09:25:55;;;;;;;2.33;1.70;;;;;;;16.37;29.53;94463.78;5110966;28;20035;-81
2023/03/26 09:28:26;;;;;;;3.30;1.80;;;;;;;16.42;29.04;94455.41;5099441;28;20028;-82
2023/03/26 09:31:07;;;;;;;2.45;1.70;;;;;;;16.52;29.40;94458.66;5109613;28;20043;-82
2023/03/26 09:33:52;;;;;;;;;;;;;;;16.21;30.32;94448.13;5111479;28;20035;-81
2023/03/26 09:36:56;;;;;;;4.43;1.80;;;;;;;16.24;30.10;94453.00;5141110;27;20344;-80
2023/03/26 09:39:38;;;;;;;2.83;1.70;;;;;;;16.08;29.51;94452.09;5108494;28;20078;-83
2023/03/26 09:42:23;;;;;;;3.35;1.83;;;;;;;15.80;29.94;94443.03;5108291;28;20046;-82
2023/03/26 09:45:09;;;;;;;3.20;2.05;;;;;;;16.07;29.54;94447.88;5075224;28;20126;-83
2023/03/26 09:47:40;;;;;;;4.97;2.28;;;;;;;15.87;29.84;94454.47;5107361;28;20465;-82
2023/03/26 09:50:51;;;;;;;9.63;7.35;;;;;;;16.04;31.44;94447.38;5110832;28;20183;-81
2023/03/26 09:53:32;;;;;;;2.83;1.95;;;;;;;16.37;31.07;94445.44;5065696;28;20127;-81
2023/03/26 09:56:03;;;;;;;;;;;;;;;16.39;31.50;94440.84;5087224;28;20043;-81
2023/03/26 09:58:47;;;;;;;;;;;;;;;16.53;30.17;94434.84;5093349;28;19915;-82
2023/03/26 10:01:46;;;;;;;4.10;2.83;;;;;;;16.64;30.43;94435.47;5109784;28;19923;-82
2023/03/26 10:04:32;;;;;;;3.28;1.95;;;;;;;16.65;30.03;94429.22;5110353;28;20031;-82
2023/03/26 10:07:31;;;;;;;2.78;1.80;;;;;;;16.63;31.17;94426.78;5109752;28;20035;-81
2023/03/26 10:10:11;;;;;;;4.10;1.75;;;;;;;16.74;30.03;94429.00;5109495;28;20039;-81
2023/03/26 10:12:50;;;;;;;5.55;2.53;;;;;;;16.75;30.50;94419.34;5110135;28;20027;-81
2023/03/26 10:15:57;;;;;;;2.83;1.67;;;;;;;16.85;29.72;94412.06;5076513;28;20047;-81
2023/03/26 10:18:45;;;;;;;3.13;1.33;;;;;;;16.88;29.60;94411.72;5089410;28;20031;-81
2023/03/26 10:21:13;;;;;;;2.63;1.40;;;;;;;16.52;30.37;94409.66;5109603;28;20035;-81
2023/03/26 10:23:41;;;;;;;2.95;1.10;;;;;;;16.76;30.18;94402.59;5109309;28;20027;-81
2023/03/26 10:26:13;;;;;;;4.72;3.33;;;;;;;16.77;30.40;94406.91;5111407;28;20115;-82
2023/03/26 10:28:58;;;;;;;2.40;1.30;;;;;;;16.79;30.05;94391.78;5110211;28;20024;-81
2023/03/26 10:31:38;;;;;;;2.13;1.35;;;;;;;16.83;30.24;94385.22;5093875;28;20028;-81
2023/03/26 10:34:20;;;;;;;2.28;1.63;;;;;;;16.72;30.70;94368.03;5093251;28;20044;-82
2023/03/26 10:36:58;;;;;;;3.58;2.40;;;;;;;16.73;28.50;94374.91;5094896;28;20032;-82
2023/03/26 10:40:09;;;;;;;5.95;2.33;;;;;;;16.58;29.94;94360.13;5111754;28;20065;-82
2023/03/26 10:42:35;;;;;;;2.63;1.15;;;;;;;16.70;30.19;94369.22;5045797;28;20054;-82
2023/03/26 10:45:18;;;;;;;3.25;1.48;;;;;;;16.71;29.21;94357.72;5109904;28;20036;-82
2023/03/26 10:48:05;;;;;;;2.63;1.20;;;;;;;16.78;28.90;94369.19;5110200;28;20023;-81
2023/03/26 10:51:13;;;;;;;5.18;1.25;;;;;;;16.71;28.32;94352.47;5111100;28;20063;-84
2023/03/26 10:53:50;;;;;;;5.50;1.80;;;;;;;16.40;28.55;94352.53;5096702;28;20042;-84
2023/03/26 10:56:26;;;;;;;2.80;1.00;;;;;;;16.46;29.21;94368.38;5111346;28;20417;-85
2023/03/26 10:58:53;;;;;;;1.90;1.10;;;;;;;16.54;28.62;94355.22;5093274;28;20023;-84
2023/03/26 11:01:40;;;;;;;2.15;0.90;;;;;;;16.62;27.81;94346.47;5110133;28;20043;-83
2023/03/26 11:04:36;;;;;;;2.47;1.00;;;;;;;16.65;27.59;94329.56;5111347;28;20027;-84
2023/03/26 11:07:17;;;;;;;1.92;1.08;;;;;;;16.71;27.73;94332.31;5111125;28;20043;-84
2023/03/26 11:10:01;;;;;;;4.57;1.20;;;;;;;16.59;28.37;94353.88;5109720;28;20040;-84
2023/03/26 11:12:29;;;;;;;3.15;1.05;;;;;;;16.62;28.01;94341.22;5111059;28;20039;-85
2023/03/26 11:15:35;;;;;;;3.85;1.40;;;;;;;16.58;27.89;94339.16;5110849;28;20038;-85
2023/03/26 11:18:06;;;;;;;2.30;1.20;;;;;;;16.58;28.03;94336.53;5111221;28;20067;-86
2023/03/26 11:20:37;;;;;;;2.20;1.05;;;;;;;16.65;26.94;94329.56;5092787;28;20089;-84
2023/03/26 11:23:15;;;;;;;2.20;0.95;;;;;;;16.78;26.97;94324.59;5109767;28;20030;-85
2023/03/26 11:25:59;;;;;;;1.60;1.10;;;;;;;16.86;27.13;94321.91;5110924;28;20479;-83
2023/03/26 11:28:43;;;;;;;2.40;1.20;;;;;;;16.81;27.32;94333.91;5109723;28;20081;-85
2023/03/26 11:31:50;;;;;;;2.03;1.00;;;;;;;16.74;26.84;94318.03;5110972;28;20035;-85
2023/03/26 11:34:17;;;;;;;3.63;0.90;;;;;;;16.68;26.41;94310.88;5067890;28;20032;-84
2023/03/26 11:36:47;;;;;;;2.28;0.95;;;;;;;16.66;26.80;94304.97;5038467;28;20680;-84
2023/03/26 11:39:17;;;;;;;3.22;1.10;;;;;;;16.75;26.45;94315.25;5059349;28;20044;-84
2023/03/26 11:41:42;;;;;;;2.45;1.10;;;;;;;16.85;25.73;94311.56;5096838;28;20023;-83
2023/03/26 11:44:21;;;;;;;1.52;0.90;;;;;;;16.83;25.59;94314.38;5113288;28;20050;-83
2023/03/26 11:46:47;;;;;;;2.70;1.63;;;;;;;16.81;24.50;94300.63;5111857;28;20028;-83
2023/03/26 11:49:18;;;;;;;2.20;0.90;;;;;;;16.85;25.08;94296.66;5096209;28;20038;-83
2023/03/26 11:51:46;;;;;;;4.43;2.22;;;;;;;16.77;25.43;94290.66;5113051;28;20031;-83
2023/03/26 11:54:12;;;;;;;5.20;2.63;;;;;;;16.79;24.92;94288.69;5112764;28;20031;-83
2023/03/26 11:56:53;;;;;;;1.80;1.10;;;;;;;16.71;25.46;94273.78;5094816;28;20034;-83
2023/03/26 11:59:22;;;;;;;1.85;1.17;;;;;;;16.64;25.08;94267.66;5114636;27;20034;-84
2023/03/26 12:02:03;;;;;;;2.08;1.10;;;;;;;16.82;24.88;94257.66;5096375;28;20467;-83
2023/03/26 12:04:36;;;;;;;;;;;;;;;16.80;25.26;94254.41;5111941;27;20418;-83